Time;durP1;ratioP1;P1;durP2;ratioP2;P2;SDS_P1;SDS_P2;PMS_P1;PMS_P2;Temp;Humidity;BMP_temperature;BMP_pressure;BME280_temperature;BME280_humidity;BME280_pressure;Samples;Min_cycle;Max_cycle;Signal;HPM_P1;HPM_P2
2022/06/01 00:00:55;;;;;;;6.13;5.03;;;;;;;22.89;50.09;99528.84;5051265;28;20033;-85
2022/06/01 00:03:23;;;;;;;5.78;5.28;;;;;;;22.77;50.01;99512.84;5050428;28;20028;-85
2022/06/01 00:05:50;;;;;;;6.38;4.70;;;;;;;22.35;50.23;99477.00;5050338;28;20075;-85
2022/06/01 00:08:16;;;;;;;9.00;5.70;;;;;;;22.16;50.12;99428.16;5051470;28;20035;-85
2022/06/01 00:10:41;;;;;;;6.57;5.20;;;;;;;22.47;50.28;99491.91;5051152;28;20025;-85
2022/06/01 00:13:07;;;;;;;5.80;5.22;;;;;;;22.08;50.46;99434.00;5050151;28;20414;-85
2022/06/01 00:15:32;;;;;;;5.90;5.15;;;;;;;22.07;50.70;99454.69;5049822;28;20036;-85
2022/06/01 00:17:58;;;;;;;5.75;5.03;;;;;;;21.90;50.85;99432.47;5054942;28;20031;-85
2022/06/01 00:20:25;;;;;;;6.60;5.45;;;;;;;20.87;51.12;99298.13;5054995;28;20025;-85
2022/06/01 00:22:50;;;;;;;7.00;5.22;;;;;;;22.06;51.28;99506.03;5055266;28;20032;-85
2022/06/01 00:25:16;;;;;;;5.78;5.30;;;;;;;22.23;51.33;99525.56;5053897;28;20021;-85
2022/06/01 00:27:42;;;;;;;5.82;5.22;;;;;;;21.64;51.37;99435.97;5055114;28;20414;-85
2022/06/01 00:30:10;;;;;;;5.75;5.25;;;;;;;21.77;51.32;99449.81;5055138;28;20478;-85
2022/06/01 00:32:36;;;;;;;6.95;5.07;;;;;;;21.73;51.17;99480.94;5054235;28;20028;-85
2022/06/01 00:35:04;;;;;;;6.13;5.00;;;;;;;21.38;51.24;99406.09;5054803;28;20482;-85
2022/06/01 00:37:30;;;;;;;5.72;5.03;;;;;;;21.86;51.38;99510.09;5053377;28;20033;-85
2022/06/01 00:39:55;;;;;;;5.88;4.78;;;;;;;21.60;51.64;99481.31;5053168;28;20034;-85
2022/06/01 00:42:31;;;;;;;5.72;5.07;;;;;;;21.44;51.66;99472.25;5053347;28;20040;-85
2022/06/01 00:44:57;;;;;;;5.45;4.82;;;;;;;20.91;51.60;99398.53;5054637;28;20027;-85
2022/06/01 00:47:25;;;;;;;7.25;5.57;;;;;;;21.48;51.71;99494.06;5053256;28;20107;-85
2022/06/01 00:50:14;;;;;;;5.82;4.88;;;;;;;21.78;51.65;99520.50;5053320;28;20405;-85
2022/06/01 00:52:46;;;;;;;7.50;5.47;;;;;;;21.25;51.57;99457.50;5054829;28;20021;-85
2022/06/01 00:55:25;;;;;;;7.60;5.28;;;;;;;21.61;51.68;99523.25;5054231;28;20057;-85
2022/06/01 00:57:57;;;;;;;6.68;5.45;;;;;;;21.31;51.69;99485.25;5053197;28;20083;-85
2022/06/01 01:00:26;;;;;;;6.18;5.43;;;;;;;20.43;51.68;99358.13;5054195;28;20029;-85
2022/06/01 01:02:55;;;;;;;5.55;5.05;;;;;;;21.46;51.76;99510.41;5054415;28;20041;-85
2022/06/01 01:05:21;;;;;;;9.35;5.97;;;;;;;21.16;51.96;99477.78;5053190;28;20466;-85
2022/06/01 01:07:47;;;;;;;5.45;5.03;;;;;;;21.04;51.98;99469.84;5054257;28;20060;-85
2022/06/01 01:10:15;;;;;;;6.85;5.30;;;;;;;21.36;52.03;99506.78;5054359;28;20111;-86
2022/06/01 01:12:57;;;;;;;5.68;5.18;;;;;;;21.01;52.08;99458.78;5054180;28;20024;-85
2022/06/01 01:15:31;;;;;;;;;;;;;;;21.09;52.71;99506.66;5054419;28;20036;-85
2022/06/01 01:17:59;;;;;;;6.72;5.47;;;;;;;21.19;52.10;99512.19;5052907;28;19963;-85
2022/06/01 01:20:25;;;;;;;7.95;5.25;;;;;;;20.54;52.21;99408.19;5052794;28;20025;-85
2022/06/01 01:23:10;;;;;;;6.28;5.68;;;;;;;21.21;52.16;99510.06;5053055;28;20382;-85
2022/06/01 01:25:38;;;;;;;6.65;4.68;;;;;;;20.97;52.27;99481.81;5052902;28;20416;-85
2022/06/01 01:28:05;;;;;;;9.50;5.10;;;;;;;20.95;52.32;99476.69;5052477;28;20035;-85
2022/06/01 01:30:40;;;;;;;6.97;5.65;;;;;;;21.26;52.12;99507.47;5054260;28;20028;-85
2022/06/01 01:33:15;;;;;;;5.50;5.00;;;;;;;20.96;52.13;99448.78;5053983;28;20029;-85
2022/06/01 01:35:44;;;;;;;8.45;5.22;;;;;;;21.29;51.82;99522.28;5052700;28;20052;-85
2022/06/01 01:38:23;;;;;;;5.10;4.60;;;;;;;20.96;52.07;99456.84;5053765;28;20033;-86
2022/06/01 01:41:12;;;;;;;6.10;5.35;;;;;;;20.89;52.52;99454.34;5052399;28;20059;-85
2022/06/01 01:43:48;;;;;;;5.80;4.90;;;;;;;21.22;52.59;99503.63;5052483;28;20046;-85
2022/06/01 01:46:14;;;;;;;5.68;4.95;;;;;;;20.32;52.23;99351.78;5052715;28;20493;-85
2022/06/01 01:48:40;;;;;;;5.18;4.68;;;;;;;20.97;52.34;99465.69;5052429;28;20029;-85
2022/06/01 01:51:06;;;;;;;9.93;5.22;;;;;;;20.99;52.36;99466.25;5052292;28;20456;-85
2022/06/01 01:53:32;;;;;;;5.55;4.80;;;;;;;21.01;52.23;99456.09;5053412;28;20505;-85
2022/06/01 01:56:09;;;;;;;5.60;5.10;;;;;;;21.29;52.19;99492.75;5053265;28;20053;-85
2022/06/01 01:58:42;;;;;;;5.95;5.22;;;;;;;21.24;52.17;99494.28;5052167;28;20484;-85
2022/06/01 02:01:19;;;;;;;5.78;5.20;;;;;;;20.71;52.50;99430.44;5051821;28;20025;-85
2022/06/01 02:03:53;;;;;;;5.63;5.13;;;;;;;20.67;52.80;99450.75;5053368;28;20116;-85
2022/06/01 02:06:24;;;;;;;7.53;5.00;;;;;;;21.01;52.82;99499.03;5053392;28;20053;-85
2022/06/01 02:09:09;;;;;;;;;;;;;;;20.81;53.10;99503.06;5052465;28;20035;-84
2022/06/01 02:14:42;;;;;;;6.00;5.07;;;;;;;20.45;52.83;99420.38;5053101;28;20508;-85
2022/06/01 02:17:21;;;;;;;7.75;5.80;;;;;;;20.40;52.79;99423.00;5051707;28;20503;-85
2022/06/01 02:19:49;;;;;;;7.85;5.05;;;;;;;20.87;52.88;99499.38;5051441;28;20039;-85
2022/06/01 02:22:14;;;;;;;8.05;5.70;;;;;;;20.13;52.70;99404.84;5053206;28;20055;-85
2022/06/01 02:24:41;;;;;;;7.45;5.20;;;;;;;20.84;52.55;99499.88;5053174;28;20029;-85
2022/06/01 02:27:09;;;;;;;7.10;4.90;;;;;;;20.44;52.87;99461.69;5051995;28;20074;-85
2022/06/01 02:29:47;;;;;;;8.70;5.00;;;;;;;20.77;52.85;99501.09;5051988;28;20457;-85
2022/06/01 02:32:13;;;;;;;5.85;5.03;;;;;;;20.58;52.82;99473.69;5052775;28;20035;-85
2022/06/01 02:34:41;;;;;;;7.05;5.05;;;;;;;20.31;52.72;99447.50;5053999;28;20068;-84
2022/06/01 02:37:08;;;;;;;6.88;5.38;;;;;;;20.59;52.86;99518.25;5067178;28;20021;-84
2022/06/01 02:39:38;;;;;;;6.88;4.90;;;;;;;20.35;52.92;99487.25;5065590;28;20025;-85
2022/06/01 02:42:27;;;;;;;5.93;4.88;;;;;;;20.26;52.96;99476.91;5060452;28;20098;-85
2022/06/01 02:44:56;;;;;;;7.88;6.07;;;;;;;19.57;52.82;99352.16;5051088;28;20048;-85
2022/06/01 02:47:22;;;;;;;5.28;4.88;;;;;;;19.94;52.82;99420.31;5051194;28;20032;-85
2022/06/01 02:49:48;;;;;;;9.13;5.28;;;;;;;20.28;52.59;99482.84;5050921;28;20029;-85
2022/06/01 02:52:13;;;;;;;5.60;5.10;;;;;;;19.48;52.65;99349.03;5051043;28;20562;-84
2022/06/01 02:54:39;;;;;;;5.20;4.68;;;;;;;19.96;52.64;99436.16;5051923;28;20080;-84
2022/06/01 02:57:05;;;;;;;5.97;4.97;;;;;;;19.69;52.81;99379.69;5050733;28;20039;-85
2022/06/01 02:59:32;;;;;;;5.57;5.07;;;;;;;20.43;52.68;99498.41;5050443;28;20065;-85
2022/06/01 03:01:58;;;;;;;7.15;5.20;;;;;;;20.19;52.83;99486.97;5051983;28;20021;-85
2022/06/01 03:04:23;;;;;;;7.00;5.22;;;;;;;20.11;52.85;99465.94;5052146;28;20029;-85
2022/06/01 03:06:50;;;;;;;7.32;4.93;;;;;;;19.93;52.85;99453.53;5052132;28;20021;-85
2022/06/01 03:09:15;;;;;;;5.95;5.35;;;;;;;19.90;52.88;99450.53;5050436;28;20033;-84
2022/06/01 03:11:41;;;;;;;5.28;4.80;;;;;;;20.20;52.80;99485.94;5050543;28;20083;-84
2022/06/01 03:14:06;;;;;;;9.07;5.30;;;;;;;19.89;52.72;99430.94;5057895;28;20502;-84
2022/06/01 03:16:32;;;;;;;8.10;5.07;;;;;;;20.22;52.52;99485.69;5064323;28;20036;-84
2022/06/01 03:18:57;;;;;;;6.43;5.10;;;;;;;20.04;52.79;99489.38;5064426;28;20047;-84
2022/06/01 03:21:23;;;;;;;5.75;5.05;;;;;;;20.17;52.79;99515.09;5051787;28;20070;-85
2022/06/01 03:23:48;;;;;;;6.72;4.60;;;;;;;19.75;53.00;99434.19;5052109;28;20464;-85
2022/06/01 03:26:15;;;;;;;7.95;5.07;;;;;;;20.12;52.75;99504.28;5050477;28;20049;-84
2022/06/01 03:28:40;;;;;;;6.18;5.20;;;;;;;20.24;52.92;99519.25;5050361;28;20068;-84
2022/06/01 03:31:06;;;;;;;5.70;5.10;;;;;;;19.66;52.94;99442.59;5050306;28;20048;-84
2022/06/01 03:33:35;;;;;;;7.20;4.82;;;;;;;19.60;52.88;99432.03;5051627;28;20033;-85
2022/06/01 03:36:04;;;;;;;6.75;5.38;;;;;;;19.78;52.92;99450.59;5050147;28;20413;-84
2022/06/01 03:38:29;;;;;;;6.22;4.95;;;;;;;19.89;52.77;99463.09;5051314;28;20021;-84
2022/06/01 03:40:55;;;;;;;6.70;4.95;;;;;;;19.89;52.78;99448.91;5051305;28;20086;-83
2022/06/01 03:43:20;;;;;;;9.00;5.40;;;;;;;20.12;52.62;99494.38;5051583;28;20047;-84
2022/06/01 03:46:19;;;;;;;8.52;5.25;;;;;;;19.92;52.56;99459.13;5051403;28;20025;-84
2022/06/01 03:48:38;;;;;;;;;;;;;;;20.21;53.05;99532.31;5052628;28;20528;-85
2022/06/01 03:51:04;;;;;;;5.60;4.82;;;;;;;19.85;52.53;99442.41;5051275;28;19908;-85
2022/06/01 03:53:30;;;;;;;6.03;4.90;;;;;;;20.48;52.43;99532.53;5050212;28;20498;-85
2022/06/01 03:55:55;;;;;;;5.68;4.78;;;;;;;20.09;52.68;99481.44;5050893;28;20088;-85
2022/06/01 03:58:23;;;;;;;6.28;4.93;;;;;;;19.83;52.40;99423.88;5051246;28;20111;-85
2022/06/01 04:00:49;;;;;;;7.40;5.30;;;;;;;20.51;52.31;99537.44;5051292;28;20547;-85
2022/06/01 04:03:16;;;;;;;6.43;4.72;;;;;;;20.51;52.36;99524.00;5051397;28;20039;-85
2022/06/01 04:05:42;;;;;;;5.72;5.10;;;;;;;20.27;52.40;99494.63;5050012;28;20021;-85
2022/06/01 04:08:08;;;;;;;8.55;5.30;;;;;;;20.31;52.38;99486.91;5050098;28;20024;-85
2022/06/01 04:10:36;;;;;;;7.22;4.97;;;;;;;20.26;52.06;99470.75;5049991;28;20028;-85
2022/06/01 04:13:02;;;;;;;7.85;5.05;;;;;;;20.74;51.98;99534.59;5050114;28;20052;-85
2022/06/01 04:15:28;;;;;;;7.43;5.32;;;;;;;20.55;51.71;99514.41;5051350;28;20116;-85
2022/06/01 04:17:54;;;;;;;5.43;4.88;;;;;;;20.16;51.91;99438.41;5050113;28;20124;-85
2022/06/01 04:20:19;;;;;;;13.75;5.60;;;;;;;20.60;51.82;99504.59;5049932;28;20052;-85
2022/06/01 04:22:46;;;;;;;9.48;5.50;;;;;;;20.73;51.45;99516.84;5051231;28;20513;-85
2022/06/01 04:25:16;;;;;;;10.95;5.53;;;;;;;20.95;51.64;99549.16;5051235;28;20054;-85
2022/06/01 04:27:42;;;;;;;6.75;5.53;;;;;;;21.00;51.70;99535.00;5049847;28;20515;-85
2022/06/01 04:30:11;;;;;;;12.27;6.35;;;;;;;20.93;51.64;99535.16;5051075;28;20112;-85
2022/06/01 04:32:36;;;;;;;13.02;6.18;;;;;;;20.73;51.74;99513.38;5049787;28;20040;-85
2022/06/01 04:35:04;;;;;;;10.70;6.20;;;;;;;20.69;51.74;99485.41;5050984;28;20033;-85
2022/06/01 04:37:29;;;;;;;6.90;5.60;;;;;;;20.79;51.80;99486.34;5051043;28;20108;-85
2022/06/01 04:39:55;;;;;;;8.65;5.75;;;;;;;20.57;51.57;99456.78;5050672;28;20170;-85
2022/06/01 04:42:20;;;;;;;8.32;5.97;;;;;;;20.85;51.49;99471.19;5050790;28;20029;-85
2022/06/01 04:44:46;;;;;;;7.47;5.55;;;;;;;20.32;51.34;99367.88;5049812;28;20017;-85
2022/06/01 04:47:11;;;;;;;7.93;5.50;;;;;;;20.89;51.46;99451.66;5051195;28;20029;-85
2022/06/01 04:49:37;;;;;;;8.32;5.78;;;;;;;21.43;51.32;99553.91;5049622;28;20029;-85
2022/06/01 04:52:03;;;;;;;6.40;5.18;;;;;;;21.61;51.60;99552.00;5050888;28;20060;-85
2022/06/01 04:54:29;;;;;;;8.65;5.78;;;;;;;20.96;51.63;99447.97;5050504;28;20127;-85
2022/06/01 04:56:54;;;;;;;8.13;4.93;;;;;;;21.02;52.08;99463.91;5050730;28;20044;-85
2022/06/01 04:59:20;;;;;;;6.45;5.22;;;;;;;20.57;52.23;99375.50;5049284;28;20027;-85
2022/06/01 05:01:46;;;;;;;7.07;5.25;;;;;;;21.58;52.40;99572.13;5050616;28;20413;-85
2022/06/01 05:04:12;;;;;;;9.07;5.22;;;;;;;21.11;52.51;99473.16;5054288;28;20075;-85
2022/06/01 05:06:37;;;;;;;6.50;5.40;;;;;;;21.68;52.56;99547.25;5054135;28;20494;-85
2022/06/01 05:09:03;;;;;;;7.03;5.10;;;;;;;21.67;52.87;99541.06;5054473;28;20027;-85
2022/06/01 05:11:29;;;;;;;5.82;4.93;;;;;;;21.36;53.09;99494.19;5052892;28;20086;-85
2022/06/01 05:13:54;;;;;;;8.85;4.97;;;;;;;21.23;53.11;99460.44;5052974;28;20024;-85
2022/06/01 05:16:20;;;;;;;7.75;5.45;;;;;;;21.30;53.04;99487.13;5052817;28;20029;-85
2022/06/01 05:18:46;;;;;;;8.15;5.32;;;;;;;21.52;53.18;99501.34;5053850;28;20029;-85
2022/06/01 05:21:11;;;;;;;7.65;5.25;;;;;;;21.93;53.28;99547.53;5052594;28;20414;-85
2022/06/01 05:23:37;;;;;;;8.63;4.90;;;;;;;21.42;53.12;99487.00;5053865;28;20028;-85
2022/06/01 05:26:03;;;;;;;6.18;4.43;;;;;;;22.03;53.05;99561.13;5052647;28;20098;-85
2022/06/01 05:28:31;;;;;;;5.55;4.75;;;;;;;22.11;53.11;99567.94;5048670;28;20401;-85
2022/06/01 05:31:05;;;;;;;6.22;4.82;;;;;;;22.16;52.99;99568.78;5040315;28;20029;-85
2022/06/01 05:33:31;;;;;;;6.57;4.40;;;;;;;21.69;52.76;99490.56;5051669;28;20033;-85
2022/06/01 05:35:57;;;;;;;5.40;4.22;;;;;;;21.89;52.73;99504.22;5052556;28;20477;-85
2022/06/01 05:38:22;;;;;;;8.57;5.15;;;;;;;21.74;52.62;99509.44;5039065;28;20094;-83
2022/06/01 05:40:48;;;;;;;7.60;5.45;;;;;;;20.86;52.72;99362.78;5033637;28;20033;-84
2022/06/01 05:43:15;;;;;;;9.13;7.45;;;;;;;22.03;52.91;99528.06;5033303;28;20037;-84
2022/06/01 05:45:42;;;;;;;8.43;5.72;;;;;;;22.34;52.77;99564.16;5032348;28;20033;-85
2022/06/01 05:48:13;;;;;;;8.60;7.00;;;;;;;21.85;52.69;99496.91;5037903;28;20033;-86
2022/06/01 05:50:38;;;;;;;8.50;6.53;;;;;;;21.54;52.99;99440.13;5053597;28;20406;-86
2022/06/01 05:53:05;;;;;;;7.13;5.85;;;;;;;22.06;52.71;99512.22;5053486;28;20043;-85
2022/06/01 05:55:30;;;;;;;8.23;5.60;;;;;;;22.19;52.56;99532.50;5047879;28;20041;-85
2022/06/01 05:57:55;;;;;;;5.50;4.80;;;;;;;22.18;52.72;99526.31;5036257;28;20513;-85
2022/06/01 06:00:21;;;;;;;5.03;4.53;;;;;;;21.83;52.45;99435.34;5048318;28;20116;-85
2022/06/01 06:02:47;;;;;;;8.93;5.45;;;;;;;22.01;52.23;99474.50;5044910;28;20029;-85
2022/06/01 06:07:58;;;;;;;9.13;4.80;;;;;;;22.33;51.78;99497.97;5045534;28;20052;-86
2022/06/01 06:10:24;;;;;;;11.55;8.45;;;;;;;22.50;51.43;99504.03;5032858;28;20029;-86
2022/06/01 06:12:49;;;;;;;7.22;4.80;;;;;;;22.40;51.15;99480.56;5035921;28;20056;-86
2022/06/01 06:15:16;;;;;;;6.22;5.32;;;;;;;22.97;51.10;99568.75;5032409;28;20569;-86
2022/06/01 06:17:41;;;;;;;6.65;5.40;;;;;;;22.27;50.67;99469.38;5032909;28;20029;-86
2022/06/01 06:20:07;;;;;;;5.45;4.28;;;;;;;22.82;50.15;99528.25;5032937;28;20421;-86
2022/06/01 06:22:33;;;;;;;8.13;5.97;;;;;;;23.14;49.90;99568.63;5031712;28;20045;-85
2022/06/01 06:24:59;;;;;;;7.85;4.40;;;;;;;22.48;49.73;99455.88;5044897;28;20470;-86
2022/06/01 06:27:26;;;;;;;8.63;5.38;;;;;;;22.93;49.66;99510.28;5031551;28;20498;-86
2022/06/01 06:29:53;;;;;;;7.20;4.15;;;;;;;22.67;49.43;99488.56;5042996;28;20025;-86
2022/06/01 06:32:18;;;;;;;7.55;4.30;;;;;;;23.22;49.15;99545.78;5044413;28;20116;-84
2022/06/01 06:34:44;;;;;;;5.57;3.72;;;;;;;22.87;48.90;99481.72;5031277;28;20112;-85
2022/06/01 06:37:09;;;;;;;8.30;7.50;;;;;;;23.02;48.93;99523.00;5038185;28;20029;-86
2022/06/01 06:39:35;;;;;;;6.30;4.68;;;;;;;21.96;48.62;99318.53;5052558;28;20082;-86
2022/06/01 06:42:00;;;;;;;6.80;4.20;;;;;;;23.19;48.21;99497.81;5051979;28;20029;-85
2022/06/01 06:44:25;;;;;;;6.57;4.60;;;;;;;22.90;47.94;99447.00;5052865;28;20039;-86
2022/06/01 06:46:51;;;;;;;5.68;3.80;;;;;;;23.21;47.77;99484.91;5037928;28;20104;-86
2022/06/01 06:49:16;;;;;;;6.50;5.90;;;;;;;23.91;47.36;99591.44;5050898;28;20486;-87
2022/06/01 06:51:42;;;;;;;5.35;4.18;;;;;;;23.68;47.03;99536.88;5046774;28;21053;-86
2022/06/01 06:54:07;;;;;;;6.93;4.93;;;;;;;23.19;47.53;99471.69;5049674;28;20025;-86
2022/06/01 06:56:33;;;;;;;7.68;6.28;;;;;;;23.71;47.58;99497.78;5050974;28;20116;-87
2022/06/01 06:58:58;;;;;;;12.57;8.57;;;;;;;23.61;47.52;99465.41;5052728;28;20094;-87
2022/06/01 07:01:24;;;;;;;6.20;3.70;;;;;;;24.28;47.51;99559.75;5049644;28;20464;-86
2022/06/01 07:03:50;;;;;;;8.10;4.63;;;;;;;24.42;47.86;99556.53;5045919;28;20025;-87
2022/06/01 07:06:17;;;;;;;6.90;5.53;;;;;;;24.58;47.69;99568.97;5035072;28;20025;-86
2022/06/01 07:08:53;;;;;;;5.60;4.90;;;;;;;24.55;47.17;99547.94;5040150;28;20071;-87
2022/06/01 07:11:21;;;;;;;7.93;5.65;;;;;;;24.73;47.12;99563.59;5031659;28;20037;-87
2022/06/01 07:13:48;;;;;;;5.75;5.15;;;;;;;24.80;46.84;99556.03;5031714;28;20033;-87
2022/06/01 07:16:17;;;;;;;5.45;4.88;;;;;;;24.62;46.73;99526.88;5032392;28;20441;-87
2022/06/01 07:18:45;;;;;;;4.82;3.97;;;;;;;24.33;46.08;99502.28;5031459;28;20091;-87
2022/06/01 07:21:11;;;;;;;5.78;5.10;;;;;;;24.20;45.92;99454.22;5038897;28;20369;-86
2022/06/01 07:23:37;;;;;;;6.32;5.32;;;;;;;24.47;45.45;99492.56;5051208;28;20063;-86
2022/06/01 07:26:06;;;;;;;6.22;3.95;;;;;;;24.79;45.00;99519.31;5051655;28;20025;-86
2022/06/01 07:28:31;;;;;;;10.10;7.47;;;;;;;24.87;45.11;99531.44;5039907;28;20025;-85
2022/06/01 07:30:57;;;;;;;8.10;5.15;;;;;;;23.34;45.33;99293.94;5032384;28;20022;-85
2022/06/01 07:33:28;;;;;;;7.20;4.95;;;;;;;25.21;44.54;99564.09;5032602;28;20056;-85
2022/06/01 07:35:54;;;;;;;7.57;3.35;;;;;;;24.67;44.11;99491.78;5030396;28;20021;-85
2022/06/01 07:43:52;;;;;;;8.48;5.65;;;;;;;24.75;44.60;99466.91;5033547;28;20036;-86
2022/06/01 07:46:18;;;;;;;9.38;6.55;;;;;;;24.85;44.59;99460.69;5046535;28;20040;-86
2022/06/01 07:48:44;;;;;;;8.40;6.13;;;;;;;25.00;44.01;99461.50;5051449;28;20414;-84
2022/06/01 07:51:10;;;;;;;7.68;6.05;;;;;;;25.33;44.13;99516.00;5049524;28;20398;-85
2022/06/01 07:53:35;;;;;;;7.50;3.95;;;;;;;24.79;44.24;99403.19;5050148;28;20040;-84
2022/06/01 07:56:00;;;;;;;17.33;14.68;;;;;;;25.37;44.33;99491.94;5051128;28;20484;-84
2022/06/01 07:58:26;;;;;;;5.10;3.53;;;;;;;25.50;44.43;99491.34;5051499;28;20118;-85
2022/06/01 08:00:51;;;;;;;6.13;4.88;;;;;;;25.81;44.27;99521.78;5050963;28;20056;-84
2022/06/01 08:03:18;;;;;;;5.35;4.53;;;;;;;25.89;44.28;99522.00;5035582;28;20092;-84
2022/06/01 08:05:43;;;;;;;4.90;3.42;;;;;;;25.65;44.06;99483.97;5032335;28;20029;-86
2022/06/01 08:08:09;;;;;;;7.45;3.60;;;;;;;26.08;43.94;99538.41;5032479;28;20029;-85
2022/06/01 08:10:36;;;;;;;5.40;3.63;;;;;;;26.31;43.85;99552.34;5050561;28;20516;-86
2022/06/01 08:13:09;;;;;;;7.40;5.65;;;;;;;25.87;43.82;99489.00;5053436;28;20030;-85
2022/06/01 08:15:46;;;;;;;4.97;3.05;;;;;;;26.01;43.36;99470.28;5043987;28;20034;-85
2022/06/01 08:18:18;;;;;;;6.80;4.10;;;;;;;25.63;43.12;99404.19;5053677;28;20392;-86
2022/06/01 08:20:44;;;;;;;6.53;4.50;;;;;;;26.72;43.16;99558.28;5043706;28;20071;-86
2022/06/01 08:23:10;;;;;;;5.72;3.65;;;;;;;26.52;43.00;99516.75;5046424;28;20033;-86
2022/06/01 08:25:37;;;;;;;8.43;5.70;;;;;;;26.35;42.97;99477.63;5031355;28;20053;-85
2022/06/01 08:28:04;;;;;;;4.85;3.60;;;;;;;26.40;42.60;99453.22;5034244;28;20024;-88
2022/06/01 08:30:31;;;;;;;7.47;3.72;;;;;;;26.86;42.48;99534.88;5051102;28;20037;-84
2022/06/01 08:32:57;;;;;;;4.93;3.60;;;;;;;26.80;42.27;99498.09;5037907;28;20087;-83
2022/06/01 08:35:27;;;;;;;8.55;5.55;;;;;;;27.28;41.83;99557.81;5037545;28;20021;-84
2022/06/01 08:37:53;;;;;;;7.60;3.97;;;;;;;27.07;41.56;99508.44;5065182;28;20036;-86
2022/06/01 08:40:22;;;;;;;8.40;6.13;;;;;;;27.49;41.70;99557.28;5040370;28;20109;-86
2022/06/01 08:43:09;;;;;;;5.88;4.50;;;;;;;27.52;41.11;99545.91;5033962;28;20360;-86
2022/06/01 08:45:36;;;;;;;5.05;4.15;;;;;;;27.73;41.47;99556.53;5033253;28;20368;-87
2022/06/01 08:48:02;;;;;;;5.28;3.92;;;;;;;27.40;40.84;99479.59;5033954;28;20032;-86
2022/06/01 08:50:32;;;;;;;4.30;3.50;;;;;;;27.97;39.69;99553.75;5050809;28;20021;-85
2022/06/01 08:53:00;;;;;;;7.50;4.68;;;;;;;27.74;39.16;99515.53;5053105;28;20479;-86
2022/06/01 08:55:34;;;;;;;6.70;3.65;;;;;;;28.04;38.85;99524.34;5053825;28;20045;-86
2022/06/01 08:58:16;;;;;;;4.15;3.40;;;;;;;28.30;37.41;99541.94;5042502;28;20021;-86
2022/06/01 09:01:24;;;;;;;4.15;3.42;;;;;;;28.34;37.50;99529.38;5034455;28;20033;-84
2022/06/01 09:04:09;;;;;;;8.57;7.68;;;;;;;28.33;36.73;99503.34;5063857;28;20063;-85
2022/06/01 09:06:42;;;;;;;7.55;6.85;;;;;;;28.71;36.06;99524.97;5056395;28;20022;-84
2022/06/01 09:09:17;;;;;;;3.67;2.80;;;;;;;28.89;36.17;99523.34;5034596;28;20025;-84
2022/06/01 09:11:44;;;;;;;4.40;3.00;;;;;;;28.66;35.55;99468.81;5039975;28;20124;-86
2022/06/01 09:14:29;;;;;;;3.78;3.05;;;;;;;29.20;35.34;99515.44;5049159;28;20029;-86
2022/06/01 09:16:56;;;;;;;9.77;3.85;;;;;;;29.37;34.95;99521.91;5042949;28;20028;-86
2022/06/01 09:19:28;;;;;;;7.38;4.13;;;;;;;29.56;34.56;99521.81;5046597;28;20471;-86
2022/06/01 09:24:48;;;;;;;5.47;3.70;;;;;;;29.41;34.33;99443.22;5049010;28;20041;-85
2022/06/01 09:27:14;;;;;;;8.05;6.30;;;;;;;29.32;33.95;99404.25;5058229;28;20032;-86
2022/06/01 09:29:52;;;;;;;3.67;2.85;;;;;;;29.43;33.44;99405.66;5060763;28;20031;-85
2022/06/01 09:32:32;;;;;;;8.15;5.82;;;;;;;30.45;33.36;99517.69;5049220;28;20028;-86
2022/06/01 09:35:01;;;;;;;5.60;3.85;;;;;;;29.60;33.28;99362.28;5060275;28;20039;-86
2022/06/01 09:37:48;;;;;;;3.47;2.88;;;;;;;30.26;32.89;99447.84;5045340;28;20024;-84
2022/06/01 09:40:30;;;;;;;4.55;2.90;;;;;;;30.30;32.28;99428.97;5047893;28;20042;-85
2022/06/01 09:43:00;;;;;;;5.63;3.67;;;;;;;31.13;32.61;99513.78;5039865;28;20033;-86
2022/06/01 09:45:28;;;;;;;4.53;4.10;;;;;;;30.71;32.26;99431.50;5031893;28;20564;-86
2022/06/01 09:48:11;;;;;;;4.55;3.28;;;;;;;31.47;31.55;99519.41;5067284;28;20418;-86
2022/06/01 09:50:40;;;;;;;5.25;4.00;;;;;;;31.70;31.65;99522.88;5072788;28;20388;-86
2022/06/01 09:53:11;;;;;;;7.72;4.75;;;;;;;31.89;31.20;99508.91;5070921;28;20103;-85
2022/06/01 09:55:51;;;;;;;7.32;5.45;;;;;;;32.08;30.78;99505.91;5052310;28;20124;-85
2022/06/01 10:07:01;;;;;;;4.75;3.13;;;;;;;32.66;30.49;99499.09;5031619;28;20040;-84
2022/06/01 10:09:30;;;;;;;7.18;5.10;;;;;;;32.61;29.85;99497.34;5012942;28;20113;-85
2022/06/01 10:11:57;;;;;;;7.95;4.15;;;;;;;32.54;30.01;99450.56;5022486;28;20091;-82
2022/06/01 10:14:34;;;;;;;7.63;4.38;;;;;;;32.44;29.66;99420.84;5020184;28;20109;-82
2022/06/01 10:17:33;;;;;;;5.95;3.58;;;;;;;32.64;29.19;99431.09;5015196;28;20052;-84
2022/06/01 10:20:24;;;;;;;8.90;5.22;;;;;;;33.14;29.62;99487.88;5018173;28;20029;-84
2022/06/01 10:22:55;;;;;;;7.18;5.97;;;;;;;33.29;29.42;99486.53;5012364;28;20045;-84
2022/06/01 10:26:00;;;;;;;8.55;4.00;;;;;;;32.99;28.68;99440.00;5025221;28;20025;-83
2022/06/01 10:28:33;;;;;;;7.57;4.05;;;;;;;32.90;29.64;99400.16;5011050;28;20045;-83
2022/06/01 10:31:01;;;;;;;8.93;6.97;;;;;;;33.53;28.94;99481.28;5030179;28;20026;-84
2022/06/01 10:33:34;;;;;;;6.63;3.72;;;;;;;32.98;28.99;99402.03;5014794;28;20108;-83
2022/06/01 10:36:05;;;;;;;9.90;6.28;;;;;;;33.67;28.80;99501.00;5026319;28;20041;-83
2022/06/01 10:38:46;;;;;;;5.55;3.28;;;;;;;32.76;28.82;99302.72;5014761;28;20033;-83
2022/06/01 10:41:14;;;;;;;;;;;;;;;34.07;28.96;99481.38;5014264;28;20437;-83
2022/06/01 10:43:46;;;;;;;5.15;3.03;;;;;;;34.25;28.37;99473.84;5012365;28;19957;-83
2022/06/01 10:46:23;;;;;;;6.60;3.97;;;;;;;34.15;28.51;99474.22;5012036;28;20030;-82
2022/06/01 10:49:08;;;;;;;9.52;6.80;;;;;;;33.53;28.90;99362.78;5026481;28;20502;-81
2022/06/01 10:51:34;;;;;;;7.22;4.05;;;;;;;33.86;28.15;99407.44;5035822;28;20061;-82
2022/06/01 10:54:06;;;;;;;9.02;4.00;;;;;;;34.37;28.12;99473.91;5023011;28;20116;-81
2022/06/01 10:56:33;;;;;;;5.40;3.60;;;;;;;34.54;28.48;99473.72;5031545;28;20052;-82
2022/06/01 10:59:04;;;;;;;6.47;4.13;;;;;;;34.14;28.20;99417.81;5023274;28;20040;-82
2022/06/01 11:02:06;;;;;;;6.75;4.03;;;;;;;34.87;27.93;99470.16;5030485;28;20104;-83
2022/06/01 11:04:43;;;;;;;6.80;5.30;;;;;;;34.55;27.79;99397.75;5026336;28;20030;-83
2022/06/01 11:07:47;;;;;;;8.00;4.22;;;;;;;35.28;27.26;99471.91;5012563;28;20494;-83
2022/06/01 11:10:40;;;;;;;5.00;3.70;;;;;;;35.09;26.86;99433.28;5033238;28;20405;-84
2022/06/01 11:13:24;;;;;;;6.00;4.22;;;;;;;35.40;27.14;99462.91;5035540;28;20033;-83
2022/06/01 11:15:59;;;;;;;5.22;3.92;;;;;;;35.53;26.88;99454.28;5014492;28;20457;-82
2022/06/01 11:18:47;;;;;;;6.68;4.07;;;;;;;35.51;26.84;99447.53;5011602;28;20036;-82
2022/06/01 11:21:49;;;;;;;4.93;3.47;;;;;;;35.49;26.75;99455.31;5014905;28;20430;-81
2022/06/01 11:24:30;;;;;;;7.13;5.00;;;;;;;35.61;26.52;99445.13;5021773;28;20128;-83
2022/06/01 11:27:09;;;;;;;6.47;5.10;;;;;;;35.61;26.11;99411.34;5013596;28;20036;-83
2022/06/01 11:29:55;;;;;;;7.35;4.10;;;;;;;36.09;26.27;99450.84;5023126;28;20057;-83
2022/06/01 11:32:28;;;;;;;5.88;3.58;;;;;;;35.93;25.67;99429.63;5027085;28;20037;-83
2022/06/01 11:35:16;;;;;;;4.32;3.25;;;;;;;35.91;25.70;99462.13;5031471;28;20030;-83
2022/06/01 11:37:49;;;;;;;6.00;3.83;;;;;;;35.81;26.17;99432.41;5015011;28;20030;-83
2022/06/01 11:40:22;;;;;;;8.57;4.47;;;;;;;35.66;26.20;99419.34;5019127;28;20038;-83
2022/06/01 11:42:55;;;;;;;5.80;3.60;;;;;;;35.48;25.75;99372.16;5027779;28;20521;-83
2022/06/01 11:45:35;;;;;;;10.07;3.42;;;;;;;35.40;25.27;99320.13;5032050;28;20049;-83
2022/06/01 11:48:08;;;;;;;5.80;3.10;;;;;;;35.88;25.59;99377.66;5025646;28;20102;-83
2022/06/01 11:51:10;;;;;;;7.10;3.17;;;;;;;36.51;24.37;99434.75;5014284;28;20280;-83
2022/06/01 11:53:41;;;;;;;7.35;4.10;;;;;;;36.06;24.97;99355.34;5019008;28;20474;-82
2022/06/01 11:56:28;;;;;;;8.38;4.32;;;;;;;36.52;24.97;99428.09;5015440;28;20549;-83
2022/06/01 11:58:56;;;;;;;5.57;3.13;;;;;;;36.59;24.96;99423.56;5042446;28;20156;-81
2022/06/01 12:01:51;;;;;;;11.75;8.40;;;;;;;36.76;24.79;99419.69;5013193;28;20048;-83
2022/06/01 12:04:19;;;;;;;9.40;5.13;;;;;;;36.89;24.67;99420.41;5011467;28;20048;-83
2022/06/01 12:06:51;;;;;;;9.75;4.85;;;;;;;36.38;24.59;99313.00;5012531;28;20036;-83
2022/06/01 12:09:43;;;;;;;9.15;5.25;;;;;;;36.65;24.63;99338.84;5027063;28;20477;-83
2022/06/01 12:12:36;;;;;;;4.25;3.90;;;;;;;37.19;24.61;99415.22;5030544;28;20124;-83